Shawn Miller — WDD2268 — position and weather

sailwx.info

Track history (hours):
 
Tides and Currents Weather Stations Pressure Air Temp Water Temp Dewpoint Dewpoint Depression Visibility Wind Speed Wind Dir Waves Ship Positions

Shawn Miller

Owner: Miller's Tug & Barge, Staten Island, NY. More information available from US FCC via Universal Licensing System and Coast Guard Vessel Documentation Center.

Last reported at 2017-Nov-17 23:39 UTC. Time now 2017-Nov-20 07:59 UTC.
Position N 40°38' W 074°04'.

Length 7 m; draft 2 m.

Type: Towing. MMSI: 367113120.

Date/timePositionNaut miles runAvg speedWind from/ knotsBaromVisibWave heightAir tempDewpointWater temp
2017-Nov-17 23:39N 40°38' W 074°04'0 1.2
2017-Nov-17 23:30N 40°38' W 074°04'2 4.1
2017-Nov-17 23:00N 40°40' W 074°03'2 4.8
2017-Nov-17 22:31N 40°42' W 074°01'0 0.9
2017-Nov-17 22:01N 40°42' W 074°01'0 0.0
2017-Nov-17 21:30N 40°42' W 074°01'0 0.1
2017-Nov-17 21:00N 40°42' W 074°01'0 0.1
2017-Nov-17 20:31N 40°42' W 074°01'0 0.9
2017-Nov-17 20:01N 40°42' W 074°01'0 0.8
2017-Nov-17 19:30N 40°42' W 074°01'0 0.8
2017-Nov-17 19:00N 40°42' W 074°01'0 0.8
2017-Nov-17 18:31N 40°42' W 074°01'0 0.8
2017-Nov-17 18:01N 40°42' W 074°01'0 0.8
2017-Nov-17 17:31N 40°42' W 074°01'0 0.8
2017-Nov-17 17:00N 40°42' W 074°01'0 0.9
2017-Nov-17 16:31N 40°42' W 074°01'0 0.8
2017-Nov-17 16:01N 40°42' W 074°01'0 0.8
2017-Nov-17 15:31N 40°42' W 074°01'0 0.1
2017-Nov-17 15:01N 40°42' W 074°01'0 0.0
2017-Nov-17 14:30N 40°42' W 074°01'0 0.9
2017-Nov-17 14:00N 40°42' W 074°01'0 0.0
2017-Nov-17 13:31N 40°42' W 074°01'0 0.0
2017-Nov-17 13:01N 40°42' W 074°01'0 0.0
2017-Nov-17 12:31N 40°42' W 074°01'0 0.7
2017-Nov-17 12:01N 40°42' W 074°01'2 4.3
2017-Nov-17 11:31N 40°40' W 074°02'2 4.9
2017-Nov-17 11:01N 40°38' W 074°04'0 0.0
2017-Nov-17 10:30N 40°38' W 074°04'0 0.0
2017-Nov-17 10:00N 40°38' W 074°04'0 0.0
2017-Nov-17 09:30N 40°38' W 074°04'0 0.0
2017-Nov-17 09:00N 40°38' W 074°04'0 0.0
2017-Nov-17 08:31N 40°38' W 074°04'0 0.0
2017-Nov-17 08:00N 40°38' W 074°04'0 0.0
2017-Nov-17 07:30N 40°38' W 074°04'0 0.0
2017-Nov-17 07:00N 40°38' W 074°04'0 0.0
2017-Nov-17 06:30N 40°38' W 074°04'0 0.0
2017-Nov-17 06:00N 40°38' W 074°04'0 0.0
2017-Nov-17 05:30N 40°38' W 074°04'0 0.0
2017-Nov-17 05:00N 40°38' W 074°04'0 0.0
2017-Nov-17 04:30N 40°38' W 074°04'0 0.0
2017-Nov-17 04:00N 40°38' W 074°04'0 0.0
2017-Nov-17 03:30N 40°38' W 074°04'0 0.0
2017-Nov-17 03:00N 40°38' W 074°04'0 0.1
2017-Nov-17 02:29N 40°38' W 074°04'0 0.9
2017-Nov-17 02:01N 40°39' W 074°04'2 3.6
2017-Nov-17 01:31N 40°40' W 074°04'1 1.8
2017-Nov-17 01:01N 40°40' W 074°04'1 2.6
2017-Nov-17 00:31N 40°40' W 074°02'3 5.6
2017-Nov-17 00:00N 40°42' W 073°60'1 2.1
2017-Nov-16 23:31N 40°43' W 073°58'5 9.3
2017-Nov-16 23:01N 40°40' W 074°04'1 1.0
2017-Nov-16 22:30N 40°40' W 074°04'2 1.7
2017-Nov-16 21:09N 40°39' W 074°07'1 7.1
2017-Nov-16 21:00N 40°39' W 074°05'1 2.3
2017-Nov-16 20:30N 40°38' W 074°04'0 0.2
2017-Nov-16 20:00N 40°38' W 074°04'2 3.6
2017-Nov-16 19:30N 40°40' W 074°03'2 3.3
2017-Nov-16 19:01N 40°41' W 074°03'0 0.0
2017-Nov-16 18:31N 40°41' W 074°03'0 0.3
2017-Nov-16 18:00N 40°41' W 074°03'2 4.0
2017-Nov-16 17:31N 40°39' W 074°03'1 2.5
2017-Nov-16 17:00N 40°38' W 074°04'0 0.1
2017-Nov-16 16:31N 40°38' W 074°04'0 0.0
2017-Nov-16 16:00N 40°38' W 074°04'0 0.2
2017-Nov-16 15:30N 40°38' W 074°04'2 3.6
2017-Nov-16 15:00N 40°40' W 074°03'2 3.3
2017-Nov-16 14:31N 40°41' W 074°03'0 0.0
2017-Nov-16 14:00N 40°41' W 074°03'2 3.1
2017-Nov-16 13:31N 40°40' W 074°03'2 3.8
2017-Nov-16 13:01N 40°38' W 074°04'0 0.1
2017-Nov-16 12:30N 40°38' W 074°04'0 0.2
2017-Nov-16 11:56N 40°38' W 074°04'0 0.0
2017-Nov-15 23:29N 40°38' W 074°04'2 3.5
2017-Nov-15 23:00N 40°39' W 074°03'3 5.4
2017-Nov-15 22:30N 40°42' W 074°01'0 0.9
2017-Nov-15 22:01N 40°42' W 074°01'0 0.0
2017-Nov-15 21:31N 40°42' W 074°01'0 0.0
2017-Nov-15 21:00N 40°42' W 074°01'0 0.0
2017-Nov-15 20:30N 40°42' W 074°01'0 0.9
2017-Nov-15 20:01N 40°42' W 074°01'0 0.9
2017-Nov-15 19:30N 40°42' W 074°01'0 0.9
2017-Nov-15 19:00N 40°42' W 074°01'0 0.9
2017-Nov-15 18:30N 40°42' W 074°01'0 0.9
2017-Nov-15 18:00N 40°42' W 074°01'0 0.9
2017-Nov-15 17:30N 40°42' W 074°01'0 0.9
2017-Nov-15 17:00N 40°42' W 074°01'0 0.9
2017-Nov-15 16:31N 40°42' W 074°01'0 0.9
2017-Nov-15 16:01N 40°42' W 074°01'0 0.8
2017-Nov-15 15:30N 40°42' W 074°01'0 0.8
2017-Nov-15 15:00N 40°42' W 074°01'0 0.0
2017-Nov-15 14:30N 40°42' W 074°01'0 0.0
2017-Nov-15 14:01N 40°42' W 074°01'0 0.0
2017-Nov-15 13:31N 40°42' W 074°01'0 0.8
2017-Nov-15 13:00N 40°42' W 074°01'0 0.7
2017-Nov-15 12:30N 40°42' W 074°01'0 0.5
2017-Nov-15 12:00N 40°42' W 074°01'2 3.7
2017-Nov-15 11:30N 40°40' W 074°02'3 5.4
2017-Nov-15 11:00N 40°38' W 074°04'0 0.0
2017-Nov-14 21:03N 40°38' W 074°04'0 0.2
2017-Nov-14 21:00N 40°38' W 074°04'0 0.2
2017-Nov-14 20:30N 40°38' W 074°04'0 0.3
2017-Nov-14 20:00N 40°38' W 074°04'0 0.2
2017-Nov-14 19:29N 40°38' W 074°04'0 0.2
2017-Nov-14 19:00N 40°38' W 074°04'0 0.2
2017-Nov-14 18:30N 40°38' W 074°04'4 7.2
2017-Nov-14 18:00N 40°42' W 074°02'0 0.5
2017-Nov-14 17:30N 40°42' W 074°03'0 0.0
2017-Nov-14 17:00N 40°42' W 074°03'0 0.0
2017-Nov-14 16:30N 40°42' W 074°03'0 0.0
2017-Nov-14 16:00N 40°42' W 074°03'0 0.0
2017-Nov-14 15:30N 40°42' W 074°03'0 0.9
2017-Nov-14 15:01N 40°41' W 074°02'2 3.9
2017-Nov-14 14:30N 40°39' W 074°04'1 2.6
2017-Nov-14 14:00N 40°38' W 074°04'0 0.0
2017-Nov-14 13:30N 40°38' W 074°04'0 0.0
2017-Nov-14 13:00N 40°38' W 074°04'0 0.0
2017-Nov-14 12:30N 40°38' W 074°04'0 0.0
2017-Nov-14 12:00N 40°38' W 074°04'0 0.0
2017-Nov-14 11:30N 40°38' W 074°04'0 0.0
2017-Nov-13 23:30N 40°38' W 074°04'1 2.9
2017-Nov-13 23:00N 40°39' W 074°03'3 5.9
2017-Nov-13 22:30N 40°42' W 074°01'0 0.8
2017-Nov-13 22:00N 40°42' W 074°01'  
Track history (hours):
 
Tides and Currents Weather Stations Pressure Air Temp Water Temp Dewpoint Dewpoint Depression Visibility Wind Speed Wind Dir Waves Ship Positions

Shawn Miller

Owner: Miller's Tug & Barge, Staten Island, NY. More information available from US FCC via Universal Licensing System and Coast Guard Vessel Documentation Center.

Last reported at 2017-Nov-17 23:39 UTC. Time now 2017-Nov-20 07:59 UTC.
Position N 40°38' W 074°04'.

Length 7 m; draft 2 m.

Type: Towing. MMSI: 367113120.

Date/timePositionNaut miles runAvg speedWind from/ knotsBaromVisibWave heightAir tempDewpointWater temp
2017-Nov-17 23:39N 40°38' W 074°04'0 1.2
2017-Nov-17 23:30N 40°38' W 074°04'2 4.1
2017-Nov-17 23:00N 40°40' W 074°03'2 4.8
2017-Nov-17 22:31N 40°42' W 074°01'0 0.9
2017-Nov-17 22:01N 40°42' W 074°01'0 0.0
2017-Nov-17 21:30N 40°42' W 074°01'0 0.1
2017-Nov-17 21:00N 40°42' W 074°01'0 0.1
2017-Nov-17 20:31N 40°42' W 074°01'0 0.9
2017-Nov-17 20:01N 40°42' W 074°01'0 0.8
2017-Nov-17 19:30N 40°42' W 074°01'0 0.8
2017-Nov-17 19:00N 40°42' W 074°01'0 0.8
2017-Nov-17 18:31N 40°42' W 074°01'0 0.8
2017-Nov-17 18:01N 40°42' W 074°01'0 0.8
2017-Nov-17 17:31N 40°42' W 074°01'0 0.8
2017-Nov-17 17:00N 40°42' W 074°01'0 0.9
2017-Nov-17 16:31N 40°42' W 074°01'0 0.8
2017-Nov-17 16:01N 40°42' W 074°01'0 0.8
2017-Nov-17 15:31N 40°42' W 074°01'0 0.1
2017-Nov-17 15:01N 40°42' W 074°01'0 0.0
2017-Nov-17 14:30N 40°42' W 074°01'0 0.9
2017-Nov-17 14:00N 40°42' W 074°01'0 0.0
2017-Nov-17 13:31N 40°42' W 074°01'0 0.0
2017-Nov-17 13:01N 40°42' W 074°01'0 0.0
2017-Nov-17 12:31N 40°42' W 074°01'0 0.7
2017-Nov-17 12:01N 40°42' W 074°01'2 4.3
2017-Nov-17 11:31N 40°40' W 074°02'2 4.9
2017-Nov-17 11:01N 40°38' W 074°04'0 0.0
2017-Nov-17 10:30N 40°38' W 074°04'0 0.0
2017-Nov-17 10:00N 40°38' W 074°04'0 0.0
2017-Nov-17 09:30N 40°38' W 074°04'0 0.0
2017-Nov-17 09:00N 40°38' W 074°04'0 0.0
2017-Nov-17 08:31N 40°38' W 074°04'0 0.0
2017-Nov-17 08:00N 40°38' W 074°04'0 0.0
2017-Nov-17 07:30N 40°38' W 074°04'0 0.0
2017-Nov-17 07:00N 40°38' W 074°04'0 0.0
2017-Nov-17 06:30N 40°38' W 074°04'0 0.0
2017-Nov-17 06:00N 40°38' W 074°04'0 0.0
2017-Nov-17 05:30N 40°38' W 074°04'0 0.0
2017-Nov-17 05:00N 40°38' W 074°04'0 0.0
2017-Nov-17 04:30N 40°38' W 074°04'0 0.0
2017-Nov-17 04:00N 40°38' W 074°04'0 0.0
2017-Nov-17 03:30N 40°38' W 074°04'0 0.0
2017-Nov-17 03:00N 40°38' W 074°04'0 0.1
2017-Nov-17 02:29N 40°38' W 074°04'0 0.9
2017-Nov-17 02:01N 40°39' W 074°04'2 3.6
2017-Nov-17 01:31N 40°40' W 074°04'1 1.8
2017-Nov-17 01:01N 40°40' W 074°04'1 2.6
2017-Nov-17 00:31N 40°40' W 074°02'3 5.6
2017-Nov-17 00:00N 40°42' W 073°60'1 2.1
2017-Nov-16 23:31N 40°43' W 073°58'5 9.3
2017-Nov-16 23:01N 40°40' W 074°04'1 1.0
2017-Nov-16 22:30N 40°40' W 074°04'2 1.7
2017-Nov-16 21:09N 40°39' W 074°07'1 7.1
2017-Nov-16 21:00N 40°39' W 074°05'1 2.3
2017-Nov-16 20:30N 40°38' W 074°04'0 0.2
2017-Nov-16 20:00N 40°38' W 074°04'2 3.6
2017-Nov-16 19:30N 40°40' W 074°03'2 3.3
2017-Nov-16 19:01N 40°41' W 074°03'0 0.0
2017-Nov-16 18:31N 40°41' W 074°03'0 0.3
2017-Nov-16 18:00N 40°41' W 074°03'2 4.0
2017-Nov-16 17:31N 40°39' W 074°03'1 2.5
2017-Nov-16 17:00N 40°38' W 074°04'0 0.1
2017-Nov-16 16:31N 40°38' W 074°04'0 0.0
2017-Nov-16 16:00N 40°38' W 074°04'0 0.2
2017-Nov-16 15:30N 40°38' W 074°04'2 3.6
2017-Nov-16 15:00N 40°40' W 074°03'2 3.3
2017-Nov-16 14:31N 40°41' W 074°03'0 0.0
2017-Nov-16 14:00N 40°41' W 074°03'2 3.1
2017-Nov-16 13:31N 40°40' W 074°03'2 3.8
2017-Nov-16 13:01N 40°38' W 074°04'0 0.1
2017-Nov-16 12:30N 40°38' W 074°04'0 0.2
2017-Nov-16 11:56N 40°38' W 074°04'0 0.0
2017-Nov-15 23:29N 40°38' W 074°04'2 3.5
2017-Nov-15 23:00N 40°39' W 074°03'3 5.4
2017-Nov-15 22:30N 40°42' W 074°01'0 0.9
2017-Nov-15 22:01N 40°42' W 074°01'0 0.0
2017-Nov-15 21:31N 40°42' W 074°01'0 0.0
2017-Nov-15 21:00N 40°42' W 074°01'0 0.0
2017-Nov-15 20:30N 40°42' W 074°01'0 0.9
2017-Nov-15 20:01N 40°42' W 074°01'0 0.9
2017-Nov-15 19:30N 40°42' W 074°01'0 0.9
2017-Nov-15 19:00N 40°42' W 074°01'0 0.9
2017-Nov-15 18:30N 40°42' W 074°01'0 0.9
2017-Nov-15 18:00N 40°42' W 074°01'0 0.9
2017-Nov-15 17:30N 40°42' W 074°01'0 0.9
2017-Nov-15 17:00N 40°42' W 074°01'0 0.9
2017-Nov-15 16:31N 40°42' W 074°01'0 0.9
2017-Nov-15 16:01N 40°42' W 074°01'0 0.8
2017-Nov-15 15:30N 40°42' W 074°01'0 0.8
2017-Nov-15 15:00N 40°42' W 074°01'0 0.0
2017-Nov-15 14:30N 40°42' W 074°01'0 0.0
2017-Nov-15 14:01N 40°42' W 074°01'0 0.0
2017-Nov-15 13:31N 40°42' W 074°01'0 0.8
2017-Nov-15 13:00N 40°42' W 074°01'0 0.7
2017-Nov-15 12:30N 40°42' W 074°01'0 0.5
2017-Nov-15 12:00N 40°42' W 074°01'2 3.7
2017-Nov-15 11:30N 40°40' W 074°02'3 5.4
2017-Nov-15 11:00N 40°38' W 074°04'0 0.0
2017-Nov-14 21:03N 40°38' W 074°04'0 0.2
2017-Nov-14 21:00N 40°38' W 074°04'0 0.2
2017-Nov-14 20:30N 40°38' W 074°04'0 0.3
2017-Nov-14 20:00N 40°38' W 074°04'0 0.2
2017-Nov-14 19:29N 40°38' W 074°04'0 0.2
2017-Nov-14 19:00N 40°38' W 074°04'0 0.2
2017-Nov-14 18:30N 40°38' W 074°04'4 7.2
2017-Nov-14 18:00N 40°42' W 074°02'0 0.5
2017-Nov-14 17:30N 40°42' W 074°03'0 0.0
2017-Nov-14 17:00N 40°42' W 074°03'0 0.0
2017-Nov-14 16:30N 40°42' W 074°03'0 0.0
2017-Nov-14 16:00N 40°42' W 074°03'0 0.0
2017-Nov-14 15:30N 40°42' W 074°03'0 0.9
2017-Nov-14 15:01N 40°41' W 074°02'2 3.9
2017-Nov-14 14:30N 40°39' W 074°04'1 2.6
2017-Nov-14 14:00N 40°38' W 074°04'0 0.0
2017-Nov-14 13:30N 40°38' W 074°04'0 0.0
2017-Nov-14 13:00N 40°38' W 074°04'0 0.0
2017-Nov-14 12:30N 40°38' W 074°04'0 0.0
2017-Nov-14 12:00N 40°38' W 074°04'0 0.0
2017-Nov-14 11:30N 40°38' W 074°04'0 0.0
2017-Nov-13 23:30N 40°38' W 074°04'1 2.9
2017-Nov-13 23:00N 40°39' W 074°03'3 5.9
2017-Nov-13 22:30N 40°42' W 074°01'0 0.8
2017-Nov-13 22:00N 40°42' W 074°01'  

Dump ship's entire track history